sensor_id;sensor_type;location;lat;lon;timestamp;pressure;altitude;pressure_sealevel;temperature;humidity
10518;BME280;5307;42.548;22.968;2023-07-20T00:01:30;93620.50;;;21.60;71.97
10518;BME280;5307;42.548;22.968;2023-07-20T00:03:56;93629.78;;;21.44;72.37
10518;BME280;5307;42.548;22.968;2023-07-20T00:06:25;93629.22;;;21.02;74.36
10518;BME280;5307;42.548;22.968;2023-07-20T00:08:53;93628.59;;;21.15;73.70
10518;BME280;5307;42.548;22.968;2023-07-20T00:11:21;93623.25;;;21.17;74.55
10518;BME280;5307;42.548;22.968;2023-07-20T00:13:48;93619.09;;;21.29;75.82
10518;BME280;5307;42.548;22.968;2023-07-20T00:16:15;93612.50;;;21.32;76.20
10518;BME280;5307;42.548;22.968;2023-07-20T00:18:41;93605.09;;;21.16;74.84
10518;BME280;5307;42.548;22.968;2023-07-20T00:21:08;93603.88;;;21.12;77.69
10518;BME280;5307;42.548;22.968;2023-07-20T00:23:37;93616.75;;;21.09;76.70
10518;BME280;5307;42.548;22.968;2023-07-20T00:26:04;93605.75;;;21.28;77.78
10518;BME280;5307;42.548;22.968;2023-07-20T00:28:31;93607.63;;;21.14;77.46
10518;BME280;5307;42.548;22.968;2023-07-20T00:30:59;93606.03;;;21.00;77.41
10518;BME280;5307;42.548;22.968;2023-07-20T00:33:26;93596.06;;;21.34;76.36
10518;BME280;5307;42.548;22.968;2023-07-20T00:35:53;93601.16;;;21.06;76.02
10518;BME280;5307;42.548;22.968;2023-07-20T00:41:17;93592.59;;;20.80;78.47
10518;BME280;5307;42.548;22.968;2023-07-20T00:43:44;93589.16;;;20.98;77.88
10518;BME280;5307;42.548;22.968;2023-07-20T00:46:11;93594.22;;;20.94;76.96
10518;BME280;5307;42.548;22.968;2023-07-20T00:48:38;93588.44;;;20.92;76.70
10518;BME280;5307;42.548;22.968;2023-07-20T00:51:06;93591.44;;;20.94;76.98
10518;BME280;5307;42.548;22.968;2023-07-20T00:53:33;93581.97;;;20.84;77.10
10518;BME280;5307;42.548;22.968;2023-07-20T00:56:00;93576.16;;;20.82;77.26
10518;BME280;5307;42.548;22.968;2023-07-20T00:58:28;93583.63;;;20.92;78.63
10518;BME280;5307;42.548;22.968;2023-07-20T01:00:55;93565.31;;;20.84;78.22
10518;BME280;5307;42.548;22.968;2023-07-20T01:03:21;93579.66;;;20.88;78.94
10518;BME280;5307;42.548;22.968;2023-07-20T01:05:51;93568.78;;;20.65;78.58
10518;BME280;5307;42.548;22.968;2023-07-20T01:08:33;93574.72;;;20.51;80.02
10518;BME280;5307;42.548;22.968;2023-07-20T01:11:08;93569.25;;;20.39;80.14
10518;BME280;5307;42.548;22.968;2023-07-20T01:13:37;93566.28;;;20.02;81.67
10518;BME280;5307;42.548;22.968;2023-07-20T01:16:05;93568.72;;;20.11;80.54
10518;BME280;5307;42.548;22.968;2023-07-20T01:18:31;93568.19;;;20.18;80.01
10518;BME280;5307;42.548;22.968;2023-07-20T01:21:01;93565.47;;;20.37;78.80
10518;BME280;5307;42.548;22.968;2023-07-20T01:27:00;93565.72;;;20.39;77.37
10518;BME280;5307;42.548;22.968;2023-07-20T01:29:49;93570.13;;;20.23;78.12
10518;BME280;5307;42.548;22.968;2023-07-20T01:32:23;93570.09;;;19.99;79.64
10518;BME280;5307;42.548;22.968;2023-07-20T01:34:52;93571.88;;;20.26;77.84
10518;BME280;5307;42.548;22.968;2023-07-20T01:37:21;93559.06;;;20.23;77.59
10518;BME280;5307;42.548;22.968;2023-07-20T01:39:52;93560.16;;;20.39;76.53
10518;BME280;5307;42.548;22.968;2023-07-20T01:42:21;93572.06;;;20.34;78.47
10518;BME280;5307;42.548;22.968;2023-07-20T01:44:50;93570.50;;;20.38;77.21
10518;BME280;5307;42.548;22.968;2023-07-20T01:47:17;93555.59;;;20.17;77.50
10518;BME280;5307;42.548;22.968;2023-07-20T01:49:46;93566.53;;;20.34;78.35
10518;BME280;5307;42.548;22.968;2023-07-20T01:52:13;93562.63;;;20.18;78.15
10518;BME280;5307;42.548;22.968;2023-07-20T01:54:40;93555.59;;;20.11;78.55
10518;BME280;5307;42.548;22.968;2023-07-20T01:57:07;93566.69;;;19.81;79.57
10518;BME280;5307;42.548;22.968;2023-07-20T01:59:34;93557.00;;;19.99;79.43
10518;BME280;5307;42.548;22.968;2023-07-20T02:02:01;93565.19;;;20.10;78.88
10518;BME280;5307;42.548;22.968;2023-07-20T02:04:28;93548.41;;;19.97;79.12
10518;BME280;5307;42.548;22.968;2023-07-20T02:06:56;93554.34;;;20.12;79.26
10518;BME280;5307;42.548;22.968;2023-07-20T02:09:23;93550.94;;;20.01;79.15
10518;BME280;5307;42.548;22.968;2023-07-20T02:11:50;93544.19;;;20.21;79.72
10518;BME280;5307;42.548;22.968;2023-07-20T02:14:16;93541.19;;;19.89;80.94
10518;BME280;5307;42.548;22.968;2023-07-20T02:20:05;93542.78;;;20.08;79.07
10518;BME280;5307;42.548;22.968;2023-07-20T02:28:18;93536.25;;;19.76;80.94
10518;BME280;5307;42.548;22.968;2023-07-20T02:30:45;93538.22;;;19.81;81.75
10518;BME280;5307;42.548;22.968;2023-07-20T02:33:11;93539.63;;;19.93;83.08
10518;BME280;5307;42.548;22.968;2023-07-20T02:35:40;93540.97;;;19.86;80.89
10518;BME280;5307;42.548;22.968;2023-07-20T02:38:07;93535.28;;;19.68;81.91
10518;BME280;5307;42.548;22.968;2023-07-20T02:40:34;93529.19;;;19.75;83.68
10518;BME280;5307;42.548;22.968;2023-07-20T02:43:02;93519.91;;;19.72;81.90
10518;BME280;5307;42.548;22.968;2023-07-20T02:45:30;93527.56;;;19.55;81.74
10518;BME280;5307;42.548;22.968;2023-07-20T02:47:57;93525.69;;;19.69;84.82
10518;BME280;5307;42.548;22.968;2023-07-20T02:50:24;93538.38;;;19.59;83.22
10518;BME280;5307;42.548;22.968;2023-07-20T02:52:50;93538.56;;;19.66;83.96
10518;BME280;5307;42.548;22.968;2023-07-20T02:55:17;93533.78;;;19.67;83.34
10518;BME280;5307;42.548;22.968;2023-07-20T02:57:44;93531.34;;;19.58;83.55
10518;BME280;5307;42.548;22.968;2023-07-20T03:00:12;93532.56;;;19.62;82.97
10518;BME280;5307;42.548;22.968;2023-07-20T03:02:43;93535.78;;;19.66;83.19
10518;BME280;5307;42.548;22.968;2023-07-20T03:05:10;93533.97;;;19.33;85.33
10518;BME280;5307;42.548;22.968;2023-07-20T03:07:36;93542.44;;;19.46;85.52
10518;BME280;5307;42.548;22.968;2023-07-20T03:10:04;93544.44;;;19.51;85.06
10518;BME280;5307;42.548;22.968;2023-07-20T03:12:32;93547.16;;;19.63;85.05
10518;BME280;5307;42.548;22.968;2023-07-20T03:15:00;93540.94;;;19.45;85.35
10518;BME280;5307;42.548;22.968;2023-07-20T03:17:26;93560.09;;;19.43;85.14
10518;BME280;5307;42.548;22.968;2023-07-20T03:19:55;93555.03;;;19.47;85.26
10518;BME280;5307;42.548;22.968;2023-07-20T03:22:21;93548.53;;;19.39;86.23
10518;BME280;5307;42.548;22.968;2023-07-20T03:24:49;93552.03;;;19.40;85.90
10518;BME280;5307;42.548;22.968;2023-07-20T03:27:16;93562.88;;;19.38;86.81
10518;BME280;5307;42.548;22.968;2023-07-20T03:29:43;93561.19;;;19.23;87.61
10518;BME280;5307;42.548;22.968;2023-07-20T03:32:10;93553.13;;;19.25;87.59
10518;BME280;5307;42.548;22.968;2023-07-20T03:34:37;93552.09;;;19.34;87.15
10518;BME280;5307;42.548;22.968;2023-07-20T03:37:05;93556.00;;;19.55;87.70
10518;BME280;5307;42.548;22.968;2023-07-20T03:39:32;93551.78;;;19.43;88.08
10518;BME280;5307;42.548;22.968;2023-07-20T03:41:59;93554.00;;;19.50;87.40
10518;BME280;5307;42.548;22.968;2023-07-20T03:44:26;93555.38;;;19.33;88.54
10518;BME280;5307;42.548;22.968;2023-07-20T03:46:53;93550.53;;;19.44;87.22
10518;BME280;5307;42.548;22.968;2023-07-20T03:49:20;93557.28;;;19.49;87.00
10518;BME280;5307;42.548;22.968;2023-07-20T03:51:46;93553.53;;;19.46;86.70
10518;BME280;5307;42.548;22.968;2023-07-20T03:54:15;93544.72;;;19.42;87.99
10518;BME280;5307;42.548;22.968;2023-07-20T03:56:41;93544.94;;;19.50;88.50
10518;BME280;5307;42.548;22.968;2023-07-20T03:59:09;93553.97;;;19.62;87.79
10518;BME280;5307;42.548;22.968;2023-07-20T04:01:36;93541.03;;;19.75;88.26
10518;BME280;5307;42.548;22.968;2023-07-20T04:04:07;93556.00;;;19.55;89.26
10518;BME280;5307;42.548;22.968;2023-07-20T04:06:34;93543.63;;;19.62;89.16
10518;BME280;5307;42.548;22.968;2023-07-20T04:09:01;93550.44;;;19.61;88.97
10518;BME280;5307;42.548;22.968;2023-07-20T04:11:29;93552.69;;;19.63;88.55
10518;BME280;5307;42.548;22.968;2023-07-20T04:14:11;93538.72;;;19.85;88.56
10518;BME280;5307;42.548;22.968;2023-07-20T04:16:38;93532.97;;;19.77;89.02
10518;BME280;5307;42.548;22.968;2023-07-20T04:19:05;93534.81;;;19.99;88.54
10518;BME280;5307;42.548;22.968;2023-07-20T04:21:32;93530.06;;;19.94;88.72
10518;BME280;5307;42.548;22.968;2023-07-20T04:23:58;93527.84;;;19.87;88.40
10518;BME280;5307;42.548;22.968;2023-07-20T04:26:25;93530.34;;;19.91;87.79
10518;BME280;5307;42.548;22.968;2023-07-20T04:28:53;93527.00;;;19.98;88.03
10518;BME280;5307;42.548;22.968;2023-07-20T04:31:20;93534.00;;;20.04;87.58
10518;BME280;5307;42.548;22.968;2023-07-20T04:33:47;93537.81;;;19.66;87.13
10518;BME280;5307;42.548;22.968;2023-07-20T04:36:14;93534.38;;;19.48;87.46
10518;BME280;5307;42.548;22.968;2023-07-20T04:38:44;93544.56;;;19.70;86.76
10518;BME280;5307;42.548;22.968;2023-07-20T04:41:11;93542.75;;;20.14;85.76
10518;BME280;5307;42.548;22.968;2023-07-20T04:43:41;93551.06;;;20.14;84.16
10518;BME280;5307;42.548;22.968;2023-07-20T04:46:09;93546.03;;;20.12;83.15
10518;BME280;5307;42.548;22.968;2023-07-20T04:48:36;93553.63;;;20.36;82.53
10518;BME280;5307;42.548;22.968;2023-07-20T04:51:03;93565.63;;;20.20;83.00
10518;BME280;5307;42.548;22.968;2023-07-20T04:53:30;93555.28;;;19.91;84.41
10518;BME280;5307;42.548;22.968;2023-07-20T04:55:57;93546.53;;;19.81;85.88
10518;BME280;5307;42.548;22.968;2023-07-20T04:58:24;93553.56;;;20.17;85.71
10518;BME280;5307;42.548;22.968;2023-07-20T05:00:51;93545.78;;;20.10;83.69
10518;BME280;5307;42.548;22.968;2023-07-20T05:03:20;93546.97;;;20.21;83.73
10518;BME280;5307;42.548;22.968;2023-07-20T05:05:47;93544.25;;;20.45;83.04
10518;BME280;5307;42.548;22.968;2023-07-20T05:08:14;93537.44;;;20.40;82.85
10518;BME280;5307;42.548;22.968;2023-07-20T05:10:41;93538.13;;;20.77;81.59
10518;BME280;5307;42.548;22.968;2023-07-20T05:13:08;93528.78;;;20.55;81.20
10518;BME280;5307;42.548;22.968;2023-07-20T05:15:35;93530.66;;;20.90;79.79
10518;BME280;5307;42.548;22.968;2023-07-20T05:18:02;93535.13;;;20.74;78.85
10518;BME280;5307;42.548;22.968;2023-07-20T05:20:30;93538.75;;;21.13;77.99
10518;BME280;5307;42.548;22.968;2023-07-20T05:22:58;93546.91;;;21.05;76.10
10518;BME280;5307;42.548;22.968;2023-07-20T05:25:25;93552.56;;;21.37;75.69
10518;BME280;5307;42.548;22.968;2023-07-20T05:27:52;93538.47;;;21.35;77.03
10518;BME280;5307;42.548;22.968;2023-07-20T05:30:20;93561.28;;;21.66;76.38
10518;BME280;5307;42.548;22.968;2023-07-20T05:32:47;93563.91;;;21.39;75.62
10518;BME280;5307;42.548;22.968;2023-07-20T05:35:16;93554.38;;;21.72;76.03
10518;BME280;5307;42.548;22.968;2023-07-20T05:37:45;93545.78;;;21.89;76.65
10518;BME280;5307;42.548;22.968;2023-07-20T05:40:13;93556.06;;;21.94;77.05
10518;BME280;5307;42.548;22.968;2023-07-20T05:42:44;93552.66;;;22.20;74.17
10518;BME280;5307;42.548;22.968;2023-07-20T05:45:11;93550.81;;;22.41;74.58
10518;BME280;5307;42.548;22.968;2023-07-20T05:47:38;93545.28;;;22.68;74.21
10518;BME280;5307;42.548;22.968;2023-07-20T05:50:05;93541.47;;;22.84;72.41
10518;BME280;5307;42.548;22.968;2023-07-20T05:52:33;93548.53;;;23.12;71.28
10518;BME280;5307;42.548;22.968;2023-07-20T05:55:01;93548.50;;;23.38;70.59
10518;BME280;5307;42.548;22.968;2023-07-20T05:57:28;93545.25;;;23.60;66.49
10518;BME280;5307;42.548;22.968;2023-07-20T05:59:55;93548.19;;;23.76;66.79
10518;BME280;5307;42.548;22.968;2023-07-20T06:02:22;93541.22;;;23.82;64.34
10518;BME280;5307;42.548;22.968;2023-07-20T06:04:49;93529.78;;;23.73;65.34
10518;BME280;5307;42.548;22.968;2023-07-20T06:07:16;93541.53;;;23.79;63.03
10518;BME280;5307;42.548;22.968;2023-07-20T06:09:43;93537.72;;;23.68;64.60
10518;BME280;5307;42.548;22.968;2023-07-20T06:12:11;93540.78;;;24.12;65.22
10518;BME280;5307;42.548;22.968;2023-07-20T06:14:38;93532.50;;;24.41;64.61
10518;BME280;5307;42.548;22.968;2023-07-20T06:17:05;93535.06;;;25.09;61.28
10518;BME280;5307;42.548;22.968;2023-07-20T06:19:32;93535.81;;;25.17;61.05
10518;BME280;5307;42.548;22.968;2023-07-20T06:21:59;93530.41;;;24.62;61.44
10518;BME280;5307;42.548;22.968;2023-07-20T06:24:25;93520.13;;;24.78;60.36
10518;BME280;5307;42.548;22.968;2023-07-20T06:26:52;93512.34;;;25.56;59.02
10518;BME280;5307;42.548;22.968;2023-07-20T06:29:20;93516.34;;;25.76;59.17
10518;BME280;5307;42.548;22.968;2023-07-20T06:31:47;93514.13;;;25.90;57.61
10518;BME280;5307;42.548;22.968;2023-07-20T06:34:14;93509.13;;;26.03;56.65
10518;BME280;5307;42.548;22.968;2023-07-20T06:36:41;93510.41;;;25.36;57.47
10518;BME280;5307;42.548;22.968;2023-07-20T06:39:08;93519.88;;;25.33;59.85
10518;BME280;5307;42.548;22.968;2023-07-20T06:41:34;93523.81;;;25.37;60.48
10518;BME280;5307;42.548;22.968;2023-07-20T06:44:02;93523.91;;;25.60;58.05
10518;BME280;5307;42.548;22.968;2023-07-20T06:46:30;93533.97;;;25.56;58.78
10518;BME280;5307;42.548;22.968;2023-07-20T06:48:57;93527.75;;;25.42;58.94
10518;BME280;5307;42.548;22.968;2023-07-20T06:51:23;93525.56;;;26.07;55.98
10518;BME280;5307;42.548;22.968;2023-07-20T06:53:50;93529.47;;;26.04;55.11
10518;BME280;5307;42.548;22.968;2023-07-20T06:56:17;93531.22;;;26.38;57.19
10518;BME280;5307;42.548;22.968;2023-07-20T06:58:44;93530.81;;;26.26;56.61
10518;BME280;5307;42.548;22.968;2023-07-20T07:01:10;93543.53;;;26.34;58.13
10518;BME280;5307;42.548;22.968;2023-07-20T07:03:39;93540.88;;;26.06;57.70
10518;BME280;5307;42.548;22.968;2023-07-20T07:06:06;93559.19;;;26.30;57.95
10518;BME280;5307;42.548;22.968;2023-07-20T07:08:32;93573.44;;;26.78;57.26
10518;BME280;5307;42.548;22.968;2023-07-20T07:10:59;93572.09;;;27.25;55.53
10518;BME280;5307;42.548;22.968;2023-07-20T07:13:26;93571.53;;;27.26;55.62
10518;BME280;5307;42.548;22.968;2023-07-20T07:15:53;93577.28;;;27.51;54.16
10518;BME280;5307;42.548;22.968;2023-07-20T07:18:20;93578.50;;;27.80;52.28
10518;BME280;5307;42.548;22.968;2023-07-20T07:20:52;93583.19;;;28.18;51.52
10518;BME280;5307;42.548;22.968;2023-07-20T07:23:19;93570.31;;;27.67;50.91
10518;BME280;5307;42.548;22.968;2023-07-20T07:25:46;93566.78;;;27.67;48.22
10518;BME280;5307;42.548;22.968;2023-07-20T07:28:13;93567.38;;;27.50;50.47
10518;BME280;5307;42.548;22.968;2023-07-20T07:30:40;93563.50;;;27.86;48.73
10518;BME280;5307;42.548;22.968;2023-07-20T07:33:07;93554.72;;;27.89;48.55
10518;BME280;5307;42.548;22.968;2023-07-20T07:35:35;93550.91;;;28.02;48.40
10518;BME280;5307;42.548;22.968;2023-07-20T07:38:03;93519.00;;;27.27;49.88
10518;BME280;5307;42.548;22.968;2023-07-20T07:40:30;93516.59;;;27.71;48.82
10518;BME280;5307;42.548;22.968;2023-07-20T07:42:57;93525.44;;;27.67;50.10
10518;BME280;5307;42.548;22.968;2023-07-20T07:45:24;93533.53;;;28.53;47.38
10518;BME280;5307;42.548;22.968;2023-07-20T07:47:51;93539.00;;;28.76;48.46
10518;BME280;5307;42.548;22.968;2023-07-20T07:50:18;93520.75;;;28.35;47.24
10518;BME280;5307;42.548;22.968;2023-07-20T07:52:45;93527.22;;;28.95;46.62
10518;BME280;5307;42.548;22.968;2023-07-20T07:55:13;93534.59;;;29.08;47.24
10518;BME280;5307;42.548;22.968;2023-07-20T07:57:45;93555.13;;;29.18;48.72
10518;BME280;5307;42.548;22.968;2023-07-20T08:00:13;93557.97;;;28.93;49.99
10518;BME280;5307;42.548;22.968;2023-07-20T08:02:41;93561.06;;;28.80;52.66
10518;BME280;5307;42.548;22.968;2023-07-20T08:05:16;93570.03;;;28.61;51.92
10518;BME280;5307;42.548;22.968;2023-07-20T08:07:43;93567.94;;;29.11;53.61
10518;BME280;5307;42.548;22.968;2023-07-20T08:10:10;93558.00;;;28.85;51.31
10518;BME280;5307;42.548;22.968;2023-07-20T08:12:39;93567.09;;;28.76;51.32
10518;BME280;5307;42.548;22.968;2023-07-20T08:15:07;93549.84;;;29.22;52.43
10518;BME280;5307;42.548;22.968;2023-07-20T08:17:33;93545.88;;;29.25;51.96
10518;BME280;5307;42.548;22.968;2023-07-20T08:20:01;93543.91;;;28.43;50.23
10518;BME280;5307;42.548;22.968;2023-07-20T08:22:28;93553.63;;;28.75;50.55
10518;BME280;5307;42.548;22.968;2023-07-20T08:24:54;93572.84;;;28.61;51.55
10518;BME280;5307;42.548;22.968;2023-07-20T08:27:21;93578.09;;;28.24;47.90
10518;BME280;5307;42.548;22.968;2023-07-20T08:29:49;93570.97;;;27.91;50.56
10518;BME280;5307;42.548;22.968;2023-07-20T08:32:16;93570.66;;;28.52;49.31
10518;BME280;5307;42.548;22.968;2023-07-20T08:34:43;93584.75;;;28.69;47.91
10518;BME280;5307;42.548;22.968;2023-07-20T08:37:10;93581.91;;;28.12;47.57
10518;BME280;5307;42.548;22.968;2023-07-20T08:39:36;93576.66;;;28.48;47.79
10518;BME280;5307;42.548;22.968;2023-07-20T08:42:04;93574.31;;;28.62;47.86
10518;BME280;5307;42.548;22.968;2023-07-20T08:44:32;93574.50;;;28.64;48.56
10518;BME280;5307;42.548;22.968;2023-07-20T08:47:02;93564.84;;;29.00;48.70
10518;BME280;5307;42.548;22.968;2023-07-20T08:49:29;93561.13;;;28.47;47.11
10518;BME280;5307;42.548;22.968;2023-07-20T08:51:56;93553.63;;;28.50;47.78
10518;BME280;5307;42.548;22.968;2023-07-20T08:54:27;93551.94;;;28.96;48.09
10518;BME280;5307;42.548;22.968;2023-07-20T08:56:57;93550.91;;;29.26;46.84
10518;BME280;5307;42.548;22.968;2023-07-20T08:59:24;93546.41;;;29.48;45.88
10518;BME280;5307;42.548;22.968;2023-07-20T09:01:51;93546.69;;;29.35;48.61
10518;BME280;5307;42.548;22.968;2023-07-20T09:04:21;93551.16;;;29.21;47.92
10518;BME280;5307;42.548;22.968;2023-07-20T09:06:49;93550.19;;;29.78;45.78
10518;BME280;5307;42.548;22.968;2023-07-20T09:09:16;93548.66;;;29.94;45.90
10518;BME280;5307;42.548;22.968;2023-07-20T09:11:47;93536.75;;;29.86;46.47
10518;BME280;5307;42.548;22.968;2023-07-20T09:14:13;93535.47;;;30.14;47.28
10518;BME280;5307;42.548;22.968;2023-07-20T09:16:51;93538.25;;;29.87;44.43
10518;BME280;5307;42.548;22.968;2023-07-20T09:19:19;93541.28;;;29.99;46.73
10518;BME280;5307;42.548;22.968;2023-07-20T09:21:49;93541.03;;;30.04;45.13
10518;BME280;5307;42.548;22.968;2023-07-20T09:24:18;93539.78;;;30.15;46.27
10518;BME280;5307;42.548;22.968;2023-07-20T09:26:49;93535.13;;;29.66;44.90
10518;BME280;5307;42.548;22.968;2023-07-20T09:29:18;93536.78;;;29.51;43.76
10518;BME280;5307;42.548;22.968;2023-07-20T09:31:58;93533.78;;;30.28;43.91
10518;BME280;5307;42.548;22.968;2023-07-20T09:34:29;93544.09;;;30.16;42.00
10518;BME280;5307;42.548;22.968;2023-07-20T09:36:59;93542.47;;;30.23;43.74
10518;BME280;5307;42.548;22.968;2023-07-20T09:39:25;93538.69;;;29.49;42.55
10518;BME280;5307;42.548;22.968;2023-07-20T09:41:53;93539.44;;;29.32;43.79
10518;BME280;5307;42.548;22.968;2023-07-20T09:44:20;93528.97;;;28.90;44.65
10518;BME280;5307;42.548;22.968;2023-07-20T09:46:49;93528.97;;;30.21;43.91
10518;BME280;5307;42.548;22.968;2023-07-20T09:49:17;93516.59;;;30.34;45.57
10518;BME280;5307;42.548;22.968;2023-07-20T09:51:44;93523.00;;;29.90;44.15
10518;BME280;5307;42.548;22.968;2023-07-20T09:54:14;93518.97;;;29.32;44.80
10518;BME280;5307;42.548;22.968;2023-07-20T09:56:42;93520.22;;;29.55;44.73
10518;BME280;5307;42.548;22.968;2023-07-20T09:59:08;93519.31;;;29.36;44.47
10518;BME280;5307;42.548;22.968;2023-07-20T10:01:36;93519.72;;;29.67;45.20
10518;BME280;5307;42.548;22.968;2023-07-20T10:04:05;93515.44;;;29.48;45.39
10518;BME280;5307;42.548;22.968;2023-07-20T10:06:34;93522.38;;;29.65;44.38
10518;BME280;5307;42.548;22.968;2023-07-20T10:09:07;93527.78;;;30.14;45.44
10518;BME280;5307;42.548;22.968;2023-07-20T10:11:36;93535.47;;;29.97;44.37
10518;BME280;5307;42.548;22.968;2023-07-20T10:14:06;93534.69;;;30.31;46.78
10518;BME280;5307;42.548;22.968;2023-07-20T10:16:43;93523.16;;;30.73;47.84
10518;BME280;5307;42.548;22.968;2023-07-20T10:19:18;93525.69;;;30.42;44.45
10518;BME280;5307;42.548;22.968;2023-07-20T10:21:55;93517.34;;;30.07;46.45
10518;BME280;5307;42.548;22.968;2023-07-20T10:24:23;93515.75;;;29.70;46.13
10518;BME280;5307;42.548;22.968;2023-07-20T10:26:53;93507.88;;;29.68;45.37
10518;BME280;5307;42.548;22.968;2023-07-20T10:29:20;93491.84;;;29.44;46.12
10518;BME280;5307;42.548;22.968;2023-07-20T10:31:48;93481.41;;;29.71;45.40
10518;BME280;5307;42.548;22.968;2023-07-20T10:34:15;93475.69;;;29.44;45.53
10518;BME280;5307;42.548;22.968;2023-07-20T10:36:46;93484.41;;;30.27;45.72
10518;BME280;5307;42.548;22.968;2023-07-20T10:39:23;93485.75;;;29.82;46.42
10518;BME280;5307;42.548;22.968;2023-07-20T10:42:02;93499.75;;;30.17;44.85
10518;BME280;5307;42.548;22.968;2023-07-20T10:44:29;93498.31;;;30.62;44.86
10518;BME280;5307;42.548;22.968;2023-07-20T10:47:00;93480.25;;;30.28;44.38
10518;BME280;5307;42.548;22.968;2023-07-20T10:49:27;93462.09;;;30.58;43.66
10518;BME280;5307;42.548;22.968;2023-07-20T10:51:57;93461.03;;;30.44;43.51
10518;BME280;5307;42.548;22.968;2023-07-20T10:54:35;93453.00;;;30.40;43.71
10518;BME280;5307;42.548;22.968;2023-07-20T10:57:27;93455.34;;;30.81;43.24
10518;BME280;5307;42.548;22.968;2023-07-20T11:03:04;93451.00;;;30.24;45.50
10518;BME280;5307;42.548;22.968;2023-07-20T11:05:33;93440.22;;;30.30;46.02
10518;BME280;5307;42.548;22.968;2023-07-20T11:08:04;93429.13;;;30.41;45.79
10518;BME280;5307;42.548;22.968;2023-07-20T11:10:31;93431.66;;;29.83;44.50
10518;BME280;5307;42.548;22.968;2023-07-20T11:13:19;93425.41;;;29.75;44.31
10518;BME280;5307;42.548;22.968;2023-07-20T11:15:47;93422.25;;;30.35;44.30
10518;BME280;5307;42.548;22.968;2023-07-20T11:18:14;93431.75;;;30.76;43.84
10518;BME280;5307;42.548;22.968;2023-07-20T11:20:41;93433.03;;;30.56;44.29
10518;BME280;5307;42.548;22.968;2023-07-20T11:23:09;93432.19;;;30.72;44.06
10518;BME280;5307;42.548;22.968;2023-07-20T11:25:37;93427.59;;;30.87;44.09
10518;BME280;5307;42.548;22.968;2023-07-20T11:28:07;93431.47;;;31.01;46.83
10518;BME280;5307;42.548;22.968;2023-07-20T11:30:36;93422.78;;;30.60;43.86
10518;BME280;5307;42.548;22.968;2023-07-20T11:33:03;93419.72;;;30.76;44.39
10518;BME280;5307;42.548;22.968;2023-07-20T11:35:30;93421.00;;;30.55;45.49
10518;BME280;5307;42.548;22.968;2023-07-20T11:37:57;93417.34;;;30.82;45.15
10518;BME280;5307;42.548;22.968;2023-07-20T11:40:24;93416.00;;;30.73;46.36
10518;BME280;5307;42.548;22.968;2023-07-20T11:42:51;93402.56;;;30.54;44.29
10518;BME280;5307;42.548;22.968;2023-07-20T11:45:19;93412.38;;;30.53;44.12
10518;BME280;5307;42.548;22.968;2023-07-20T11:47:47;93408.03;;;30.33;44.59
10518;BME280;5307;42.548;22.968;2023-07-20T11:50:14;93404.13;;;30.75;47.69
10518;BME280;5307;42.548;22.968;2023-07-20T11:52:42;93402.03;;;30.65;45.31
10518;BME280;5307;42.548;22.968;2023-07-20T11:55:10;93395.06;;;30.66;43.60
10518;BME280;5307;42.548;22.968;2023-07-20T11:57:37;93395.97;;;30.79;42.99
10518;BME280;5307;42.548;22.968;2023-07-20T12:00:05;93381.00;;;30.86;43.04
10518;BME280;5307;42.548;22.968;2023-07-20T12:02:37;93389.88;;;30.72;45.94
10518;BME280;5307;42.548;22.968;2023-07-20T12:05:06;93378.78;;;30.84;42.76
10518;BME280;5307;42.548;22.968;2023-07-20T12:07:36;93378.91;;;30.77;43.99
10518;BME280;5307;42.548;22.968;2023-07-20T12:10:05;93377.00;;;30.98;44.51
10518;BME280;5307;42.548;22.968;2023-07-20T12:12:33;93372.38;;;31.03;41.96
10518;BME280;5307;42.548;22.968;2023-07-20T12:15:14;93372.50;;;30.66;41.81
10518;BME280;5307;42.548;22.968;2023-07-20T12:17:44;93374.59;;;30.76;40.96
10518;BME280;5307;42.548;22.968;2023-07-20T12:20:12;93371.16;;;30.58;41.14
10518;BME280;5307;42.548;22.968;2023-07-20T12:22:39;93372.97;;;30.72;44.81
10518;BME280;5307;42.548;22.968;2023-07-20T12:25:08;93364.59;;;30.46;42.26
10518;BME280;5307;42.548;22.968;2023-07-20T12:27:36;93364.31;;;30.51;42.88
10518;BME280;5307;42.548;22.968;2023-07-20T12:30:05;93359.44;;;30.61;43.07
10518;BME280;5307;42.548;22.968;2023-07-20T12:32:33;93350.09;;;30.78;44.07
10518;BME280;5307;42.548;22.968;2023-07-20T12:35:00;93356.50;;;30.79;42.48
10518;BME280;5307;42.548;22.968;2023-07-20T12:37:28;93349.69;;;30.72;42.21
10518;BME280;5307;42.548;22.968;2023-07-20T12:39:56;93356.50;;;30.79;43.06
10518;BME280;5307;42.548;22.968;2023-07-20T12:42:23;93348.50;;;30.85;45.32
10518;BME280;5307;42.548;22.968;2023-07-20T12:44:49;93348.78;;;30.89;42.72
10518;BME280;5307;42.548;22.968;2023-07-20T12:47:17;93342.09;;;30.65;42.85
10518;BME280;5307;42.548;22.968;2023-07-20T12:49:44;93340.03;;;30.75;43.52
10518;BME280;5307;42.548;22.968;2023-07-20T12:52:12;93339.44;;;30.86;45.07
10518;BME280;5307;42.548;22.968;2023-07-20T12:54:40;93345.22;;;30.88;44.25
10518;BME280;5307;42.548;22.968;2023-07-20T12:57:08;93335.00;;;30.83;43.80
10518;BME280;5307;42.548;22.968;2023-07-20T12:59:35;93335.97;;;30.49;46.16
10518;BME280;5307;42.548;22.968;2023-07-20T13:02:01;93334.78;;;30.52;44.36
10518;BME280;5307;42.548;22.968;2023-07-20T13:04:29;93344.84;;;30.36;43.45
10518;BME280;5307;42.548;22.968;2023-07-20T13:06:56;93346.50;;;30.49;45.12
10518;BME280;5307;42.548;22.968;2023-07-20T13:09:24;93338.81;;;30.68;42.71
10518;BME280;5307;42.548;22.968;2023-07-20T13:11:52;93346.66;;;30.41;40.31
10518;BME280;5307;42.548;22.968;2023-07-20T13:14:19;93342.94;;;30.48;40.84
10518;BME280;5307;42.548;22.968;2023-07-20T13:16:46;93341.47;;;30.57;40.96
10518;BME280;5307;42.548;22.968;2023-07-20T13:19:12;93339.94;;;30.36;42.22
10518;BME280;5307;42.548;22.968;2023-07-20T13:21:40;93338.94;;;30.61;41.08
10518;BME280;5307;42.548;22.968;2023-07-20T13:24:08;93340.59;;;30.64;41.45